createdAt,value
2017-07-06T00:00:15.243Z,1012
2017-07-06T00:01:15.230Z,1012
2017-07-06T00:02:15.220Z,1011.99
2017-07-06T00:03:15.211Z,1011.99
2017-07-06T00:04:15.190Z,1012
2017-07-06T00:05:15.177Z,1012
2017-07-06T00:06:15.160Z,1011.98
2017-07-06T00:07:15.149Z,1011.96
2017-07-06T00:08:15.134Z,1011.95
2017-07-06T00:09:15.122Z,1011.95
2017-07-06T00:10:15.112Z,1011.93
2017-07-06T00:11:15.094Z,1011.97
2017-07-06T00:12:15.087Z,1011.97
2017-07-06T00:13:15.071Z,1011.95
2017-07-06T00:14:15.050Z,1011.95
2017-07-06T00:15:15.041Z,1011.96
2017-07-06T00:16:15.031Z,1012
2017-07-06T00:17:15.011Z,1012.03
2017-07-06T00:18:15.000Z,1012.04
2017-07-06T00:19:14.994Z,1012.02
2017-07-06T00:20:14.971Z,1012.05
2017-07-06T00:21:14.955Z,1012.02
2017-07-06T00:22:14.943Z,1012.02
2017-07-06T00:23:14.932Z,1012.01
2017-07-06T00:24:14.913Z,1012.05
2017-07-06T00:25:14.902Z,1012
2017-07-06T00:26:14.894Z,1012
2017-07-06T00:27:14.881Z,1011.98
2017-07-06T00:28:14.862Z,1011.99
2017-07-06T00:29:14.853Z,1012.03
2017-07-06T00:30:14.839Z,1012.03
2017-07-06T00:31:14.821Z,1011.99
2017-07-06T00:32:14.805Z,1012
2017-07-06T00:33:14.790Z,1011.99
2017-07-06T00:34:14.784Z,1011.98
2017-07-06T00:35:14.767Z,1011.97
2017-07-06T00:36:14.750Z,1011.94
2017-07-06T00:37:14.741Z,1011.92
2017-07-06T00:38:14.724Z,1011.91
2017-07-06T00:39:14.710Z,1011.92
2017-07-06T00:40:14.701Z,1011.95
2017-07-06T00:41:14.688Z,1011.98
2017-07-06T00:42:14.670Z,1011.95
2017-07-06T00:43:14.654Z,1011.93
2017-07-06T00:44:14.645Z,1011.96
2017-07-06T00:45:14.632Z,1011.97
2017-07-06T00:46:14.616Z,1011.98
2017-07-06T00:47:14.600Z,1011.98
2017-07-06T00:48:14.587Z,1011.99
2017-07-06T00:49:14.572Z,1012.03
2017-07-06T00:50:14.571Z,1012.07
2017-07-06T00:51:14.544Z,1012.02
2017-07-06T00:52:14.529Z,1012.04
2017-07-06T00:53:14.522Z,1012.04
2017-07-06T00:54:14.501Z,1012.03
2017-07-06T00:55:14.492Z,1012.07
2017-07-06T00:56:14.482Z,1012.05
2017-07-06T00:57:14.461Z,1012.06
2017-07-06T00:58:14.446Z,1012.05
2017-07-06T00:59:14.431Z,1012.06
2017-07-06T01:00:14.420Z,1012.07
2017-07-06T01:01:14.403Z,1012.08
2017-07-06T01:02:14.399Z,1012.07
2017-07-06T01:03:14.382Z,1012.1
2017-07-06T01:04:14.362Z,1012.1
2017-07-06T01:05:14.354Z,1012.11
2017-07-06T01:06:14.332Z,1012.11
2017-07-06T01:07:14.322Z,1012.07
2017-07-06T01:08:14.306Z,1012.13
2017-07-06T01:09:14.295Z,1012.09
2017-07-06T01:10:14.275Z,1012.1
2017-07-06T01:11:14.263Z,1012.12
2017-07-06T01:12:14.252Z,1012.09
2017-07-06T01:13:14.242Z,1012.08
2017-07-06T01:14:14.224Z,1012.08
2017-07-06T01:15:14.209Z,1012.05
2017-07-06T01:16:14.190Z,1012.09
2017-07-06T01:17:14.179Z,1012.06
2017-07-06T01:18:14.163Z,1012.04
2017-07-06T01:19:14.148Z,1012.06
2017-07-06T01:20:14.141Z,1012.04
2017-07-06T01:21:14.121Z,1012.04
2017-07-06T01:22:14.111Z,1012.09
2017-07-06T01:23:14.091Z,1012.08
2017-07-06T01:24:14.080Z,1012.07
2017-07-06T01:25:14.064Z,1012.09
2017-07-06T01:26:14.047Z,1012.08
2017-07-06T01:27:14.033Z,1012.11
2017-07-06T01:28:14.022Z,1012.09
2017-07-06T01:29:14.007Z,1012.04
2017-07-06T01:30:13.989Z,1012.07
2017-07-06T01:31:13.976Z,1012.07
2017-07-06T01:32:13.962Z,1012.07
2017-07-06T01:33:13.953Z,1012.05
2017-07-06T01:34:13.936Z,1012.06
2017-07-06T01:35:13.928Z,1012.04
2017-07-06T01:36:13.907Z,1012.05
2017-07-06T01:37:13.890Z,1012.08
2017-07-06T01:38:13.874Z,1012.1
2017-07-06T01:39:13.860Z,1012.11
2017-07-06T01:40:13.852Z,1012.09
2017-07-06T01:41:13.834Z,1012.12
2017-07-06T01:42:13.826Z,1012.14
2017-07-06T01:43:13.802Z,1012.12
2017-07-06T01:44:13.791Z,1012.1
2017-07-06T01:45:13.771Z,1012.14
2017-07-06T01:46:13.759Z,1012.14
2017-07-06T01:47:13.748Z,1012.12
2017-07-06T01:48:13.730Z,1012.12
2017-07-06T01:49:13.715Z,1012.07
2017-07-06T01:50:13.703Z,1012.07
2017-07-06T01:51:13.686Z,1012.08
2017-07-06T01:52:13.672Z,1012.08
2017-07-06T01:53:13.658Z,1012.09
2017-07-06T01:54:13.642Z,1012.08
2017-07-06T01:55:13.630Z,1012.09
2017-07-06T01:56:13.618Z,1012.09
2017-07-06T01:57:13.602Z,1012.1
2017-07-06T01:58:13.584Z,1012.11
2017-07-06T01:59:13.572Z,1012.12
2017-07-06T02:00:13.556Z,1012.12
2017-07-06T02:01:13.561Z,1012.13
2017-07-06T02:02:13.528Z,1012.12
2017-07-06T02:03:13.510Z,1012.11
2017-07-06T02:04:13.501Z,1012.09
2017-07-06T02:05:13.481Z,1012.08
2017-07-06T02:06:13.466Z,1012.08
2017-07-06T02:07:13.452Z,1012.05
2017-07-06T02:08:13.441Z,1012.08
2017-07-06T02:09:13.428Z,1012.05
2017-07-06T02:10:13.420Z,1012.07
2017-07-06T02:11:13.396Z,1012.04
2017-07-06T02:12:13.481Z,1012.02
2017-07-06T02:13:13.365Z,1012.05
2017-07-06T02:14:13.391Z,1012.04
2017-07-06T02:15:13.335Z,1012.06
2017-07-06T02:16:13.326Z,1012.05
2017-07-06T02:17:13.306Z,1012.04
2017-07-06T02:18:13.291Z,1012.03
2017-07-06T02:19:13.282Z,1012.1
2017-07-06T02:20:13.264Z,1012.11
2017-07-06T02:21:13.251Z,1012.12
2017-07-06T02:22:13.232Z,1012.13
2017-07-06T02:23:13.216Z,1012.13
2017-07-06T02:24:13.212Z,1012.16
2017-07-06T02:25:13.193Z,1012.15
2017-07-06T02:26:13.178Z,1012.17
2017-07-06T02:27:13.162Z,1012.17
2017-07-06T02:28:13.144Z,1012.2
2017-07-06T02:29:13.131Z,1012.15
2017-07-06T02:30:13.118Z,1012.16
2017-07-06T02:31:13.105Z,1012.16
2017-07-06T02:32:13.091Z,1012.14
2017-07-06T02:33:13.070Z,1012.17
2017-07-06T02:34:13.057Z,1012.14
2017-07-06T02:35:13.044Z,1012.15
2017-07-06T02:36:13.032Z,1012.11
2017-07-06T02:37:13.011Z,1012.13
2017-07-06T02:38:12.996Z,1012.12
2017-07-06T02:39:12.995Z,1012.11
2017-07-06T02:40:12.969Z,1012.14
2017-07-06T02:41:12.951Z,1012.11
2017-07-06T02:42:12.938Z,1012.09
2017-07-06T02:43:12.922Z,1012.07
2017-07-06T02:44:12.912Z,1012.06
2017-07-06T02:45:12.893Z,1012.07
2017-07-06T02:46:12.883Z,1012.07
2017-07-06T02:47:12.873Z,1012.08
2017-07-06T02:48:12.849Z,1012.09
2017-07-06T02:49:12.842Z,1012.1
2017-07-06T02:50:12.823Z,1012.13
2017-07-06T02:51:12.804Z,1012.12
2017-07-06T02:52:12.791Z,1012.11
2017-07-06T02:53:12.774Z,1012.11
2017-07-06T02:54:12.761Z,1012.12
2017-07-06T02:55:12.745Z,1012.08
2017-07-06T02:56:12.732Z,1012.09
2017-07-06T02:57:12.712Z,1012.11
2017-07-06T02:58:12.699Z,1012.09
2017-07-06T02:59:12.690Z,1012.12
2017-07-06T03:00:12.670Z,1012.1
2017-07-06T03:01:12.656Z,1012.15
2017-07-06T03:02:12.642Z,1012.13
2017-07-06T03:03:12.628Z,1012.13
2017-07-06T03:04:12.611Z,1012.13
2017-07-06T03:05:12.601Z,1012.14
2017-07-06T03:06:12.581Z,1012.17
2017-07-06T03:07:12.564Z,1012.17
2017-07-06T03:08:12.554Z,1012.18
2017-07-06T03:09:12.539Z,1012.17
2017-07-06T03:10:12.521Z,1012.18
2017-07-06T03:11:12.510Z,1012.15
2017-07-06T03:12:12.490Z,1012.17
2017-07-06T03:13:12.481Z,1012.18
2017-07-06T03:14:12.459Z,1012.18
2017-07-06T03:15:12.449Z,1012.2
2017-07-06T03:16:12.430Z,1012.21
2017-07-06T03:17:12.413Z,1012.23
2017-07-06T03:18:12.400Z,1012.25
2017-07-06T03:19:12.389Z,1012.21
2017-07-06T03:20:12.370Z,1012.2
2017-07-06T03:21:12.355Z,1012.23
2017-07-06T03:22:12.345Z,1012.2
2017-07-06T03:23:12.322Z,1012.2
2017-07-06T03:24:12.311Z,1012.25
2017-07-06T03:25:12.301Z,1012.24
2017-07-06T03:26:12.287Z,1012.26
2017-07-06T03:27:12.275Z,1012.26
2017-07-06T03:28:12.251Z,1012.26
2017-07-06T03:29:12.238Z,1012.27
2017-07-06T03:30:12.220Z,1012.27
2017-07-06T03:31:12.213Z,1012.3
2017-07-06T03:32:12.191Z,1012.29
2017-07-06T03:33:12.181Z,1012.33
2017-07-06T03:34:12.161Z,1012.3
2017-07-06T03:35:12.151Z,1012.29
2017-07-06T03:36:12.130Z,1012.32
2017-07-06T03:37:12.120Z,1012.34
2017-07-06T03:38:12.102Z,1012.32
2017-07-06T03:39:12.088Z,1012.32
2017-07-06T03:40:12.070Z,1012.34
2017-07-06T03:41:12.056Z,1012.31
2017-07-06T03:42:12.040Z,1012.3
2017-07-06T03:43:12.024Z,1012.32
2017-07-06T03:44:12.011Z,1012.33
2017-07-06T03:45:12.002Z,1012.34
2017-07-06T03:46:11.976Z,1012.29
2017-07-06T03:47:11.971Z,1012.33
2017-07-06T03:48:11.947Z,1012.31
2017-07-06T03:49:11.942Z,1012.3
2017-07-06T03:50:11.922Z,1012.34
2017-07-06T03:51:11.904Z,1012.35
2017-07-06T03:52:11.890Z,1012.31
2017-07-06T03:53:11.880Z,1012.35
2017-07-06T03:54:11.860Z,1012.34
2017-07-06T03:55:11.849Z,1012.34
2017-07-06T03:56:11.829Z,1012.3
2017-07-06T03:57:11.817Z,1012.32
2017-07-06T03:58:11.801Z,1012.36
2017-07-06T03:59:11.791Z,1012.38
2017-07-06T04:00:11.770Z,1012.4
2017-07-06T04:01:11.761Z,1012.43
2017-07-06T04:02:11.740Z,1012.42
2017-07-06T04:03:11.770Z,1012.41
2017-07-06T04:04:11.706Z,1012.41
2017-07-06T04:05:11.698Z,1012.39
2017-07-06T04:06:11.680Z,1012.38
2017-07-06T04:07:11.666Z,1012.35
2017-07-06T04:08:11.650Z,1012.38
2017-07-06T04:09:11.632Z,1012.38
2017-07-06T04:10:11.621Z,1012.37
2017-07-06T04:11:11.604Z,1012.37
2017-07-06T04:12:11.589Z,1012.38
2017-07-06T04:13:11.623Z,1012.38
2017-07-06T04:14:11.558Z,1012.37
2017-07-06T04:15:11.541Z,1012.39
2017-07-06T04:16:11.525Z,1012.39
2017-07-06T04:17:11.509Z,1012.38
2017-07-06T04:18:11.501Z,1012.33
2017-07-06T04:19:11.479Z,1012.37
2017-07-06T04:20:11.471Z,1012.34
2017-07-06T04:21:11.450Z,1012.37
2017-07-06T04:22:11.437Z,1012.36
2017-07-06T04:23:11.471Z,1012.37
2017-07-06T04:24:11.419Z,1012.38
2017-07-06T04:25:11.395Z,1012.39
2017-07-06T04:26:11.372Z,1012.4
2017-07-06T04:27:11.362Z,1012.39
2017-07-06T04:28:11.347Z,1012.41
2017-07-06T04:29:11.326Z,1012.42
2017-07-06T04:30:11.315Z,1012.4
2017-07-06T04:31:11.297Z,1012.38
2017-07-06T04:32:11.285Z,1012.41
2017-07-06T04:33:11.270Z,1012.41
2017-07-06T04:34:11.259Z,1012.4
2017-07-06T04:35:11.242Z,1012.43
2017-07-06T04:36:11.220Z,1012.42
2017-07-06T04:37:11.208Z,1012.45
2017-07-06T04:38:11.196Z,1012.42
2017-07-06T04:39:11.234Z,1012.44
2017-07-06T04:40:11.160Z,1012.46
2017-07-06T04:41:11.149Z,1012.45
2017-07-06T04:42:11.140Z,1012.49
2017-07-06T04:43:11.123Z,1012.49
2017-07-06T04:44:11.109Z,1012.54
2017-07-06T04:45:11.088Z,1012.53
2017-07-06T04:46:11.073Z,1012.53
2017-07-06T04:47:11.053Z,1012.57
2017-07-06T04:48:11.040Z,1012.57
2017-07-06T04:49:11.024Z,1012.58
2017-07-06T04:50:11.021Z,1012.58
2017-07-06T04:51:11.004Z,1012.58
2017-07-06T04:52:10.982Z,1012.63
2017-07-06T04:53:10.971Z,1012.62
2017-07-06T04:54:10.948Z,1012.62
2017-07-06T04:55:10.939Z,1012.64
2017-07-06T04:56:10.921Z,1012.64
2017-07-06T04:57:10.908Z,1012.68
2017-07-06T04:58:10.892Z,1012.63
2017-07-06T04:59:10.878Z,1012.63
2017-07-06T05:00:10.860Z,1012.64
2017-07-06T05:01:10.851Z,1012.63
2017-07-06T05:02:10.832Z,1012.62
2017-07-06T05:03:10.820Z,1012.63
2017-07-06T05:04:10.801Z,1012.64
2017-07-06T05:05:10.785Z,1012.66
2017-07-06T05:06:10.773Z,1012.62
2017-07-06T05:07:10.758Z,1012.6
2017-07-06T05:08:10.743Z,1012.6
2017-07-06T05:09:10.726Z,1012.62
2017-07-06T05:10:10.710Z,1012.66
2017-07-06T05:11:10.703Z,1012.68
2017-07-06T05:12:10.683Z,1012.7
2017-07-06T05:13:10.672Z,1012.68
2017-07-06T05:14:10.649Z,1012.66
2017-07-06T05:15:10.636Z,1012.69
2017-07-06T05:16:10.619Z,1012.67
2017-07-06T05:17:10.613Z,1012.68
2017-07-06T05:18:10.589Z,1012.66
2017-07-06T05:19:10.579Z,1012.69
2017-07-06T05:20:10.560Z,1012.68
2017-07-06T05:21:10.551Z,1012.67
2017-07-06T05:22:10.534Z,1012.66
2017-07-06T05:23:10.520Z,1012.68
2017-07-06T05:24:10.509Z,1012.61
2017-07-06T05:25:10.490Z,1012.6
2017-07-06T05:26:10.474Z,1012.65
2017-07-06T05:27:10.460Z,1012.64
2017-07-06T05:28:10.443Z,1012.7
2017-07-06T05:29:10.432Z,1012.65
2017-07-06T05:30:10.420Z,1012.64
2017-07-06T05:31:10.401Z,1012.66
2017-07-06T05:32:10.394Z,1012.61
2017-07-06T05:33:10.374Z,1012.64
2017-07-06T05:34:10.359Z,1012.6
2017-07-06T05:35:10.341Z,1012.61
2017-07-06T05:36:10.327Z,1012.59
2017-07-06T05:37:10.322Z,1012.63
2017-07-06T05:38:10.300Z,1012.59
2017-07-06T05:39:10.290Z,1012.61
2017-07-06T05:40:10.269Z,1012.59
2017-07-06T05:41:10.258Z,1012.55
2017-07-06T05:42:10.262Z,1012.58
2017-07-06T05:43:10.224Z,1012.62
2017-07-06T05:44:10.265Z,1012.61
2017-07-06T05:45:10.198Z,1012.59
2017-07-06T05:46:10.185Z,1012.56
2017-07-06T05:47:10.173Z,1012.57
2017-07-06T05:48:10.164Z,1012.55
2017-07-06T05:49:10.140Z,1012.53
2017-07-06T05:50:10.131Z,1012.54
2017-07-06T05:51:10.110Z,1012.56
2017-07-06T05:52:10.173Z,1012.52
2017-07-06T05:53:10.079Z,1012.54
2017-07-06T05:54:10.170Z,1012.54
2017-07-06T05:55:10.055Z,1012.53
2017-07-06T05:56:10.090Z,1012.56
2017-07-06T05:57:10.033Z,1012.56
2017-07-06T05:58:10.009Z,1012.57
2017-07-06T05:59:09.997Z,1012.57
2017-07-06T06:00:10.039Z,1012.56
2017-07-06T06:01:09.971Z,1012.58
2017-07-06T06:02:10.007Z,1012.56
2017-07-06T06:03:09.940Z,1012.56
2017-07-06T06:04:09.937Z,1012.56
2017-07-06T06:05:09.909Z,1012.57
2017-07-06T06:06:09.945Z,1012.53
2017-07-06T06:07:09.890Z,1012.58
2017-07-06T06:08:09.870Z,1012.57
2017-07-06T06:09:09.858Z,1012.58
2017-07-06T06:10:09.847Z,1012.57
2017-07-06T06:11:09.829Z,1012.58
2017-07-06T06:12:09.869Z,1012.62
2017-07-06T06:13:09.801Z,1012.57
2017-07-06T06:14:09.787Z,1012.57
2017-07-06T06:15:09.772Z,1012.59
2017-07-06T06:16:09.758Z,1012.62
2017-07-06T06:17:09.752Z,1012.64
2017-07-06T06:18:09.733Z,1012.62
2017-07-06T06:19:09.716Z,1012.62
2017-07-06T06:20:09.710Z,1012.62
2017-07-06T06:21:09.691Z,1012.61
2017-07-06T06:22:09.686Z,1012.62
2017-07-06T06:23:09.693Z,1012.64
2017-07-06T06:24:09.691Z,1012.67
2017-07-06T06:25:09.684Z,1012.64
2017-07-06T06:26:09.683Z,1012.65
2017-07-06T06:27:09.654Z,1012.61
2017-07-06T06:28:09.645Z,1012.63
2017-07-06T06:29:09.618Z,1012.66
2017-07-06T06:30:09.618Z,1012.66
2017-07-06T06:31:09.608Z,1012.65
2017-07-06T06:32:09.572Z,1012.67
2017-07-06T06:33:09.573Z,1012.65
2017-07-06T06:34:09.564Z,1012.66
2017-07-06T06:35:09.549Z,1012.7
2017-07-06T06:36:09.526Z,1012.66
2017-07-06T06:37:09.528Z,1012.64
2017-07-06T06:38:09.459Z,1012.65
2017-07-06T06:39:09.440Z,1012.67
2017-07-06T06:40:09.430Z,1012.65
2017-07-06T06:41:09.425Z,1012.62
2017-07-06T06:42:09.402Z,1012.64
2017-07-06T06:43:09.439Z,1012.62
2017-07-06T06:44:09.380Z,1012.62
2017-07-06T06:45:09.359Z,1012.58
2017-07-06T06:46:09.353Z,1012.62
2017-07-06T06:47:09.344Z,1012.6
2017-07-06T06:48:09.323Z,1012.62
2017-07-06T06:49:09.311Z,1012.63
2017-07-06T06:50:09.296Z,1012.61
2017-07-06T06:51:09.291Z,1012.65
2017-07-06T06:52:09.272Z,1012.65
2017-07-06T06:53:09.258Z,1012.67
2017-07-06T06:54:09.251Z,1012.71
2017-07-06T06:55:09.231Z,1012.66
2017-07-06T06:56:09.221Z,1012.67
2017-07-06T06:57:09.212Z,1012.69
2017-07-06T06:58:09.191Z,1012.68
2017-07-06T06:59:09.178Z,1012.71
2017-07-06T07:00:09.170Z,1012.7
2017-07-06T07:01:09.151Z,1012.71
2017-07-06T07:02:09.141Z,1012.7
2017-07-06T07:03:09.130Z,1012.66
2017-07-06T07:04:09.115Z,1012.69
2017-07-06T07:05:09.099Z,1012.67
2017-07-06T07:06:09.092Z,1012.71
2017-07-06T07:07:09.075Z,1012.72
2017-07-06T07:08:09.061Z,1012.72
2017-07-06T07:09:09.050Z,1012.74
2017-07-06T07:10:09.036Z,1012.74
2017-07-06T07:11:09.026Z,1012.74
2017-07-06T07:12:09.013Z,1012.75
2017-07-06T07:13:09.000Z,1012.76
2017-07-06T07:14:08.992Z,1012.72
2017-07-06T07:15:08.976Z,1012.66
2017-07-06T07:16:08.962Z,1012.7
2017-07-06T07:17:08.951Z,1012.75
2017-07-06T07:18:08.937Z,1012.7
2017-07-06T07:19:08.923Z,1012.72
2017-07-06T07:20:08.910Z,1012.7
2017-07-06T07:21:08.910Z,1012.72
2017-07-06T07:22:08.887Z,1012.72
2017-07-06T07:23:08.879Z,1012.75
2017-07-06T07:24:08.860Z,1012.73
2017-07-06T07:25:08.849Z,1012.75
2017-07-06T07:26:08.843Z,1012.73
2017-07-06T07:27:08.883Z,1012.74
2017-07-06T07:28:08.820Z,1012.72
2017-07-06T07:29:08.801Z,1012.76
2017-07-06T07:30:08.790Z,1012.78
2017-07-06T07:31:08.778Z,1012.81
2017-07-06T07:32:08.771Z,1012.83
2017-07-06T07:33:08.758Z,1012.82
2017-07-06T07:34:08.748Z,1012.83
2017-07-06T07:35:08.736Z,1012.8
2017-07-06T07:36:08.727Z,1012.85
2017-07-06T07:37:08.720Z,1012.87
2017-07-06T07:38:08.696Z,1012.82
2017-07-06T07:39:08.688Z,1012.83
2017-07-06T07:40:08.672Z,1012.81
2017-07-06T07:41:08.660Z,1012.79
2017-07-06T07:42:08.646Z,1012.78
2017-07-06T07:43:08.639Z,1012.79
2017-07-06T07:44:08.624Z,1012.81
2017-07-06T07:45:08.619Z,1012.82
2017-07-06T07:46:08.604Z,1012.78
2017-07-06T07:47:08.593Z,1012.8
2017-07-06T07:48:08.579Z,1012.85
2017-07-06T07:49:08.567Z,1012.86
2017-07-06T07:50:08.556Z,1012.87
2017-07-06T07:51:08.542Z,1012.86
2017-07-06T07:52:08.532Z,1012.88
2017-07-06T07:53:08.523Z,1012.79
2017-07-06T07:54:08.510Z,1012.82
2017-07-06T07:55:08.495Z,1012.77
2017-07-06T07:56:08.491Z,1012.81
2017-07-06T07:57:08.475Z,1012.83
2017-07-06T07:58:08.468Z,1012.83
2017-07-06T07:59:08.451Z,1012.89
2017-07-06T08:00:08.444Z,1012.88
2017-07-06T08:01:08.427Z,1012.88
2017-07-06T08:02:08.420Z,1012.88
2017-07-06T08:03:08.409Z,1012.88
2017-07-06T08:04:08.401Z,1012.85
2017-07-06T08:05:08.387Z,1012.88
2017-07-06T08:06:08.376Z,1012.89
2017-07-06T08:07:08.367Z,1012.89
2017-07-06T08:08:08.362Z,1012.91
2017-07-06T08:09:08.340Z,1012.9
2017-07-06T08:10:08.338Z,1012.88
2017-07-06T08:11:08.322Z,1012.89
2017-07-06T08:12:08.311Z,1012.94
2017-07-06T08:13:08.300Z,1012.91
2017-07-06T08:14:08.297Z,1012.96
2017-07-06T08:15:08.289Z,1012.99
2017-07-06T08:16:08.273Z,1012.96
2017-07-06T08:17:08.256Z,1012.99
2017-07-06T08:18:08.345Z,1012.98
2017-07-06T08:19:08.237Z,1012.98
2017-07-06T08:20:08.331Z,1012.97
2017-07-06T08:21:08.220Z,1012.95
2017-07-06T08:22:08.266Z,1012.94
2017-07-06T08:23:08.197Z,1012.95
2017-07-06T08:24:08.189Z,1012.95
2017-07-06T08:25:08.172Z,1012.89
2017-07-06T08:26:08.224Z,1012.88
2017-07-06T08:27:08.157Z,1012.89
2017-07-06T08:28:08.150Z,1012.88
2017-07-06T08:29:08.139Z,1012.87
2017-07-06T08:30:08.127Z,1012.9
2017-07-06T08:31:08.121Z,1012.84
2017-07-06T08:32:08.106Z,1012.85
2017-07-06T08:33:08.096Z,1012.85
2017-07-06T08:34:08.093Z,1012.86
2017-07-06T08:35:08.077Z,1012.87
2017-07-06T08:36:08.062Z,1012.82
2017-07-06T08:37:08.054Z,1012.86
2017-07-06T08:38:08.055Z,1012.84
2017-07-06T08:39:08.034Z,1012.87
2017-07-06T08:40:08.029Z,1012.86
2017-07-06T08:41:08.020Z,1012.89
2017-07-06T08:42:08.011Z,1012.9
2017-07-06T08:43:07.997Z,1012.93
2017-07-06T08:44:07.990Z,1012.93
2017-07-06T08:45:07.980Z,1012.9
2017-07-06T08:46:07.973Z,1012.9
2017-07-06T08:47:07.964Z,1012.87
2017-07-06T08:48:07.952Z,1012.84
2017-07-06T08:49:07.939Z,1012.85
2017-07-06T08:50:07.931Z,1012.86
2017-07-06T08:51:07.921Z,1012.83
2017-07-06T08:52:07.908Z,1012.87
2017-07-06T08:53:07.900Z,1012.8
2017-07-06T08:54:07.890Z,1012.8
2017-07-06T08:55:07.891Z,1012.8
2017-07-06T08:56:07.870Z,1012.81
2017-07-06T08:57:07.873Z,1012.8
2017-07-06T08:58:07.863Z,1012.76
2017-07-06T08:59:07.846Z,1012.77
2017-07-06T09:00:07.842Z,1012.8
2017-07-06T09:01:07.829Z,1012.76
2017-07-06T09:02:07.816Z,1012.78
2017-07-06T09:03:07.807Z,1012.8
2017-07-06T09:04:07.801Z,1012.84
2017-07-06T09:05:07.793Z,1012.81
2017-07-06T09:06:07.781Z,1012.86
2017-07-06T09:07:07.845Z,1012.86
2017-07-06T09:08:07.764Z,1012.87
2017-07-06T09:09:07.862Z,1012.87
2017-07-06T09:10:07.749Z,1012.92
2017-07-06T09:11:07.844Z,1012.91
2017-07-06T09:12:07.733Z,1012.94
2017-07-06T09:13:07.787Z,1012.93
2017-07-06T09:14:07.714Z,1012.91
2017-07-06T09:15:07.711Z,1012.88
2017-07-06T09:16:07.752Z,1012.81
2017-07-06T09:17:07.692Z,1012.83
2017-07-06T09:18:07.682Z,1012.81
2017-07-06T09:19:07.680Z,1012.83
2017-07-06T09:20:07.671Z,1012.8
2017-07-06T09:21:07.660Z,1012.78
2017-07-06T09:22:07.650Z,1012.8
2017-07-06T09:23:07.645Z,1012.72
2017-07-06T09:24:07.652Z,1012.7
2017-07-06T09:25:07.633Z,1012.67
2017-07-06T09:26:07.626Z,1012.71
2017-07-06T09:27:07.622Z,1012.71
2017-07-06T09:28:07.609Z,1012.71
2017-07-06T09:29:07.609Z,1012.7
2017-07-06T09:30:07.602Z,1012.64
2017-07-06T09:31:07.598Z,1012.66
2017-07-06T09:32:07.594Z,1012.63
2017-07-06T09:33:07.591Z,1012.62
2017-07-06T09:34:07.579Z,1012.58
2017-07-06T09:35:07.569Z,1012.58
2017-07-06T09:36:07.570Z,1012.58
2017-07-06T09:37:07.559Z,1012.57
2017-07-06T09:38:07.561Z,1012.54
2017-07-06T09:39:07.550Z,1012.51
2017-07-06T09:40:07.544Z,1012.54
2017-07-06T09:41:07.541Z,1012.51
2017-07-06T09:42:07.540Z,1012.5
2017-07-06T09:43:07.526Z,1012.52
2017-07-06T09:44:07.623Z,1012.51
2017-07-06T09:45:07.521Z,1012.5
2017-07-06T09:46:07.529Z,1012.51
2017-07-06T09:47:07.510Z,1012.47
2017-07-06T09:48:07.510Z,1012.45
2017-07-06T09:49:07.499Z,1012.5
2017-07-06T09:50:07.500Z,1012.46
2017-07-06T09:51:07.490Z,1012.4
2017-07-06T09:52:07.493Z,1012.36
2017-07-06T09:53:07.491Z,1012.33
2017-07-06T09:54:07.480Z,1012.29
2017-07-06T09:55:07.480Z,1012.34
2017-07-06T09:56:07.479Z,1012.25
2017-07-06T09:57:07.471Z,1012.3
2017-07-06T09:58:07.466Z,1012.27
2017-07-06T09:59:07.462Z,1012.3
2017-07-06T10:00:07.462Z,1012.29
2017-07-06T10:01:07.460Z,1012.3
2017-07-06T10:02:07.461Z,1012.33
2017-07-06T10:03:07.453Z,1012.33
2017-07-06T10:04:07.451Z,1012.31
2017-07-06T10:05:07.446Z,1012.29
2017-07-06T10:06:07.442Z,1012.3
2017-07-06T10:07:07.445Z,1012.26
2017-07-06T10:08:07.441Z,1012.29
2017-07-06T10:09:07.433Z,1012.28
2017-07-06T10:10:07.436Z,1012.27
2017-07-06T10:11:07.431Z,1012.23
2017-07-06T10:12:07.433Z,1012.26
2017-07-06T10:13:07.425Z,1012.19
2017-07-06T10:14:07.422Z,1012.24
2017-07-06T10:15:07.429Z,1012.18
2017-07-06T10:16:07.422Z,1012.18
2017-07-06T10:17:07.418Z,1012.18
2017-07-06T10:18:07.414Z,1012.14
2017-07-06T10:19:07.410Z,1012.14
2017-07-06T10:20:07.404Z,1012.14
2017-07-06T10:21:07.404Z,1012.15
2017-07-06T10:22:07.401Z,1012.1
2017-07-06T10:23:07.390Z,1012.08
2017-07-06T10:24:07.388Z,1012.1
2017-07-06T10:25:07.393Z,1012.07
2017-07-06T10:26:07.382Z,1012.09
2017-07-06T10:27:07.382Z,1012.1
2017-07-06T10:28:07.381Z,1012.06
2017-07-06T10:29:07.375Z,1012.06
2017-07-06T10:30:07.369Z,1012.02
2017-07-06T10:31:07.366Z,1012.02
2017-07-06T10:32:07.361Z,1012.03
2017-07-06T10:33:07.356Z,1012.03
2017-07-06T10:34:07.353Z,1012.06
2017-07-06T10:35:07.352Z,1012.05
2017-07-06T10:36:07.352Z,1012.04
2017-07-06T10:37:07.343Z,1012.03
2017-07-06T10:38:07.334Z,1012.04
2017-07-06T10:39:07.331Z,1012.04
2017-07-06T10:40:07.331Z,1012.08
2017-07-06T10:41:07.320Z,1012.09
2017-07-06T10:42:07.320Z,1012.08
2017-07-06T10:43:07.322Z,1012.1
2017-07-06T10:44:07.310Z,1012.06
2017-07-06T10:45:07.305Z,1012.11
2017-07-06T10:46:07.303Z,1012.09
2017-07-06T10:47:07.302Z,1012.13
2017-07-06T10:48:07.291Z,1012.1
2017-07-06T10:49:07.301Z,1012.1
2017-07-06T10:50:07.279Z,1012.16
2017-07-06T10:51:07.282Z,1012.18
2017-07-06T10:52:07.269Z,1012.17
2017-07-06T10:53:07.261Z,1012.14
2017-07-06T10:54:07.264Z,1012.2
2017-07-06T10:55:07.252Z,1012.19
2017-07-06T10:56:07.240Z,1012.14
2017-07-06T10:57:07.237Z,1012.14
2017-07-06T10:58:07.232Z,1012.14
2017-07-06T10:59:07.226Z,1012.14
2017-07-06T11:00:07.224Z,1012.16
2017-07-06T11:01:07.211Z,1012.13
2017-07-06T11:02:07.211Z,1012.12
2017-07-06T11:03:07.202Z,1012.12
2017-07-06T11:04:07.200Z,1012.08
2017-07-06T11:05:07.186Z,1012.05
2017-07-06T11:06:07.179Z,1012.06
2017-07-06T11:07:07.172Z,1012.05
2017-07-06T11:08:07.173Z,1012.08
2017-07-06T11:09:07.175Z,1012.07
2017-07-06T11:10:07.156Z,1012.09
2017-07-06T11:11:07.165Z,1012.12
2017-07-06T11:12:07.155Z,1012.1
2017-07-06T11:13:07.146Z,1012.11
2017-07-06T11:14:07.135Z,1012.09
2017-07-06T11:15:07.128Z,1012.12
2017-07-06T11:16:07.126Z,1012.11
2017-07-06T11:17:07.114Z,1012.13
2017-07-06T11:18:07.116Z,1012.13
2017-07-06T11:19:07.116Z,1012.12
2017-07-06T11:20:07.105Z,1012.13
2017-07-06T11:21:07.093Z,1012.13
2017-07-06T11:22:07.085Z,1012.12
2017-07-06T11:23:07.072Z,1012.12
2017-07-06T11:24:07.078Z,1012.12
2017-07-06T11:25:07.059Z,1012.06
2017-07-06T11:26:07.051Z,1012.1
2017-07-06T11:27:07.050Z,1012.06
2017-07-06T11:28:07.038Z,1012
2017-07-06T11:29:07.026Z,1012
2017-07-06T11:30:07.026Z,1011.96
2017-07-06T11:31:07.017Z,1011.98
2017-07-06T11:32:07.010Z,1012.01
2017-07-06T11:33:06.998Z,1012
2017-07-06T11:34:06.996Z,1011.99
2017-07-06T11:35:06.988Z,1012.05
2017-07-06T11:36:06.988Z,1012.04
2017-07-06T11:37:06.972Z,1012.02
2017-07-06T11:38:06.976Z,1012
2017-07-06T11:39:06.957Z,1012.01
2017-07-06T11:40:06.961Z,1012.01
2017-07-06T11:41:06.949Z,1011.99
2017-07-06T11:42:06.940Z,1011.95
2017-07-06T11:43:06.932Z,1011.93
2017-07-06T11:44:06.931Z,1011.94
2017-07-06T11:45:06.920Z,1011.93
2017-07-06T11:46:06.910Z,1011.91
2017-07-06T11:47:06.908Z,1011.91
2017-07-06T11:48:06.899Z,1011.9
2017-07-06T11:49:06.889Z,1011.93
2017-07-06T11:50:06.888Z,1011.92
2017-07-06T11:51:06.880Z,1011.91
2017-07-06T11:52:06.869Z,1011.91
2017-07-06T11:53:06.869Z,1011.97
2017-07-06T11:54:06.859Z,1011.96
2017-07-06T11:55:06.847Z,1011.95
2017-07-06T11:56:06.841Z,1011.93
2017-07-06T11:57:06.840Z,1011.9
2017-07-06T11:58:06.829Z,1011.91
2017-07-06T11:59:06.822Z,1011.88
2017-07-06T12:00:06.812Z,1011.85
2017-07-06T12:01:06.803Z,1011.82
2017-07-06T12:02:06.800Z,1011.84
2017-07-06T12:03:06.790Z,1011.82
2017-07-06T12:04:06.800Z,1011.84
2017-07-06T12:05:06.780Z,1011.83
2017-07-06T12:06:06.771Z,1011.83
2017-07-06T12:07:06.764Z,1011.83
2017-07-06T12:08:06.756Z,1011.83
2017-07-06T12:09:06.749Z,1011.82